Rivolto Air Base

LIPI · Friuli Venezia Giulia, 意大利

罗盘
风向 的 Rivolto Air Base 6/24
风: 2 kt, 1 beaufort

1 kt

2 kt
改变
0 1.000 2.000 3.000 4.000 5.000
CAVOK
SPECI LIVT 060955Z VRB02KT CAVOK 13/09 Q1016 RMK FEW FEW060 QUK 1 QUL 0 VIS MAR 20 KM VIS MIN 9999

METAR Rivolto Air Base - LIPI

Rivolto Air Base是,意大利中的中型机场。 该机场有一条跑道: 6/24. 该领域的国际民航组织标志是LIPI.

这份报告是针对2022年12月6日 10:55, 当地时间在Trieste进行的。

机场观察

可变方向的风很小或没有风。

天气为CAVOK。这意味着在5.000 ft或MSA(最低安全高度)以下(以较高者为准)以下没有云。这也意味着没有观测到积雨云或高耸的积云,可见度为10 km 或者更多或更高。此外,不会有雾,降雨或其他重要天气。

温度和风寒是13 °C。 露点为9 °C,相对湿度为77%。 海平面上的气压为1016 hPa (QNH)。

白天

今天,太阳从07:34升起,在16:23降落。 这适用于Rivolto Air Base,世界夏令时可能有所不同。 当地时间与世界标准时间之间的时差为+1 小时。 当前,没有夏令时有效。

公司介绍

我们没有关于这个机场的公司信息。

体会

到Vliegles.nl去找飞行课程,跳伞和其他飞行体验。 浏览页面,了解Rivolto Air Base附近所有可用的活动。 你也可以使用搜索功能来寻找你所在地附近的特定飞行课程、跳伞或其他飞行体验。

跑道

Id 标题 侧风 逆风 侧风 %
6/24 059°-239° 2 kt 1 kt 86 %

逆风成分最大的方向会被突出显示,并用于横风计算。 这并不一定意味着这个方向在使用。

温度 & 天气

温度 13 °C
露点 9 °C
相对湿度 77%
Kp-index 0 (0-9)

评论

FEW FEW060 QUK 1 QUL 0 VIS MAR 20 KM VIS MIN 9999

白天

日出
07:30
中午
11:55
日落
16:21 (4:47)

小工具

你想在你的网站上有一个关于Rivolto Air Base的当前航空天气(METAR)的小部件吗?

显示HTML代码

我们和第三方通过cookies跟踪您在我们网站上的互联网行为。如果你继续,我们认为你同意我们的饼干政策